Dudinka, Russia
Current Conditions -  °F | °C
As of 4:30 AM on Sunday 26 Oct 2014 (Local Time) from USNN Reporting Station
Light Snow Light Snow  
Wind Chill: -7°   Ceiling: 7800
Heat Index:   Visibility: 6mi
Dew Point:   Wind: 9mph
Humidity: 79%   Direction: 220°SW
Pressure: 29.59"   Gusts: NA
Location:  69.41°N, 86.18°E
Report Text: USNN 252130Z 22004MPS 9000 -SN OVC078 M14/M17 Q1002 NOSIG RMKQFE747 21430740
Loading
Personal Weather Stations






























Interactive Weather Map New forecast layout! Learn more

10-Day Weather Forecast

Advertisements
Track Severe Weather on mobile